Tui, Spain
Current Conditions -  °F | °C
As of 3:00 PM on Friday 19 Dec 2014 (Local Time) from LEVX Reporting Station
Overcast Overcast  
Wind Chill:   Ceiling: 2600
Heat Index:   Visibility: 6mi
Dew Point:   Wind: 5mph
Humidity: 82%   Direction: 190°S
Pressure: 30.53"   Gusts: NA
Location:  42.05°N, 8.64°W
Report Text: LEVX 191400Z 19004KT 160V240 9999 OVC026 09/06 Q1034 NOSIG
Loading
Personal Weather Stations






























Interactive Weather Map New forecast layout! Learn more

10-Day Weather Forecast

Advertisements
Track Severe Weather on mobile